Time;durP1;ratioP1;P1;durP2;ratioP2;P2;SDS_P1;SDS_P2;PMS_P1;PMS_P2;Temp;Humidity;BMP_temperature;BMP_pressure;BME280_temperature;BME280_humidity;BME280_pressure;Samples;Min_cycle;Max_cycle;Signal;HPM_P1;HPM_P2
2023/06/09 00:01:44;;;;;;;6.5;5.7;;;;;;;14.55;100;935.0969;;;;
2023/06/09 00:04:15;;;;;;;6.9;6.2;;;;;;;14.45;100;935.0011;;;;
2023/06/09 00:06:43;;;;;;;6.3;5.6;;;;;;;14.38;100;935.0268;;;;
2023/06/09 00:09:07;;;;;;;7;5.5;;;;;;;14.35;100;935.0744;;;;
2023/06/09 00:11:34;;;;;;;5.7;5.1;;;;;;;14.32;100;935.0106;;;;
2023/06/09 00:13:59;;;;;;;6.3;5.7;;;;;;;14.36;100;935.0598;;;;
2023/06/09 00:16:28;;;;;;;7.7;5.5;;;;;;;14.35;99.96875;934.9414;;;;
2023/06/09 00:18:51;;;;;;;7.6;5.2;;;;;;;14.29;99.56445;934.9789;;;;
2023/06/09 00:21:18;;;;;;;6.3;5.7;;;;;;;14.37;99.53516;934.9877;;;;
2023/06/09 00:23:44;;;;;;;6.2;5.6;;;;;;;14.36;99.64746;934.9238;;;;
2023/06/09 00:26:10;;;;;;;6.1;5;;;;;;;14.31;99.62402;934.9283;;;;
2023/06/09 00:28:35;;;;;;;5.7;5.1;;;;;;;14.13;100;934.8625;;;;
2023/06/09 00:31:01;;;;;;;6;5.4;;;;;;;14.06;100;934.8967;;;;
2023/06/09 00:33:26;;;;;;;5.9;5.3;;;;;;;14.08;100;934.8542;;;;
2023/06/09 00:35:54;;;;;;;5.6;5;;;;;;;14.11;100;934.8875;;;;
2023/06/09 00:38:19;;;;;;;5.9;5.3;;;;;;;14.09;100;934.8589;;;;
2023/06/09 00:40:45;;;;;;;5.9;5.3;;;;;;;14.1;100;934.8683;;;;
2023/06/09 00:43:10;;;;;;;6;5;;;;;;;14.02;100;934.7699;;;;
2023/06/09 00:45:35;;;;;;;6.2;5.5;;;;;;;14.01;100;934.8377;;;;
2023/06/09 00:48:01;;;;;;;6;5.4;;;;;;;13.99;99.73633;934.8267;;;;
2023/06/09 00:50:28;;;;;;;6.1;5.5;;;;;;;14.01;99.25684;934.8713;;;;
2023/06/09 00:52:53;;;;;;;5.8;5.2;;;;;;;14;99.3125;934.785;;;;
2023/06/09 00:55:19;;;;;;;6.3;5.7;;;;;;;13.95;99.24219;934.7766;;;;
2023/06/09 00:57:43;;;;;;;7.3;5.7;;;;;;;13.96;99.51074;934.7614;;;;
2023/06/09 01:00:16;;;;;;;14.4;5.7;;;;;;;13.95;99.25586;934.6838;;;;
2023/06/09 01:02:48;;;;;;;6.2;5.6;;;;;;;13.86;100;934.735;;;;
2023/06/09 01:05:12;;;;;;;6.3;5.5;;;;;;;13.8;100;934.7249;;;;
2023/06/09 01:07:40;;;;;;;6.4;5.6;;;;;;;13.84;100;934.7768;;;;
2023/06/09 01:10:09;;;;;;;6.2;5.6;;;;;;;13.86;100;934.8159;;;;
2023/06/09 01:12:34;;;;;;;6.2;5.4;;;;;;;13.84;99.18359;934.8145;;;;
2023/06/09 01:15:00;;;;;;;6;5.4;;;;;;;13.8;98.4502;934.8081;;;;
2023/06/09 01:17:26;;;;;;;6.8;5.2;;;;;;;13.74;98.24023;934.7766;;;;
2023/06/09 01:19:51;;;;;;;6.4;5.2;;;;;;;13.74;98.21777;934.7958;;;;
2023/06/09 01:22:16;;;;;;;5.6;5.1;;;;;;;13.77;99.07422;934.7203;;;;
2023/06/09 01:24:46;;;;;;;7.2;5.5;;;;;;;13.7;99.3916;934.7769;;;;
2023/06/09 01:27:08;;;;;;;5.5;5;;;;;;;13.55;100;934.7859;;;;
2023/06/09 01:29:35;;;;;;;7;5.1;;;;;;;13.46;100;934.6993;;;;
2023/06/09 01:32:00;;;;;;;5.5;4.9;;;;;;;13.49;100;934.692;;;;
2023/06/09 01:34:25;;;;;;;6.9;5.4;;;;;;;13.42;100;934.7124;;;;
2023/06/09 01:36:51;;;;;;;6.2;5.6;;;;;;;13.46;100;934.7346;;;;
2023/06/09 01:39:18;;;;;;;6.5;5.4;;;;;;;13.26;99.4082;934.7908;;;;
2023/06/09 01:41:43;;;;;;;7.3;5.5;;;;;;;13.3;98.6709;934.825;;;;
2023/06/09 01:44:10;;;;;;;6.3;5.2;;;;;;;13.19;98.80762;934.7758;;;;
2023/06/09 01:46:35;;;;;;;5.8;5.2;;;;;;;13.14;97.44922;934.8014;;;;
2023/06/09 01:49:01;;;;;;;5.9;5.3;;;;;;;13.14;97.97949;934.815;;;;
2023/06/09 01:51:30;;;;;;;6.5;5.7;;;;;;;13.16;99.79883;934.8324;;;;
2023/06/09 01:53:55;;;;;;;6.4;5.7;;;;;;;13.19;100;934.803;;;;
2023/06/09 01:56:21;;;;;;;6.5;5.9;;;;;;;13.15;100;934.7805;;;;
2023/06/09 01:58:46;;;;;;;6.5;5.6;;;;;;;13.07;100;934.7434;;;;
2023/06/09 02:01:11;;;;;;;6.3;5.7;;;;;;;12.98;100;934.7364;;;;
2023/06/09 02:03:36;;;;;;;6.8;5.3;;;;;;;12.84;100;934.7988;;;;
2023/06/09 02:08:44;;;;;;;6.4;5.8;;;;;;;12.84;100;934.8691;;;;
2023/06/09 02:11:13;;;;;;;6.7;6.1;;;;;;;12.8;100;934.8993;;;;
2023/06/09 02:13:38;;;;;;;6.9;5.7;;;;;;;12.73;100;934.8669;;;;
2023/06/09 02:16:06;;;;;;;9.9;6;;;;;;;12.76;100;934.8108;;;;
2023/06/09 02:18:32;;;;;;;6.7;6;;;;;;;12.83;100;934.778;;;;
2023/06/09 02:21:01;;;;;;;6.5;5.9;;;;;;;12.84;100;934.8116;;;;
2023/06/09 02:23:26;;;;;;;6.2;5.6;;;;;;;12.8;100;934.8785;;;;
2023/06/09 02:25:55;;;;;;;5.9;5.3;;;;;;;12.65;100;934.8488;;;;
2023/06/09 02:28:20;;;;;;;6.5;5.9;;;;;;;12.69;100;934.8742;;;;
2023/06/09 02:30:47;;;;;;;6.6;6;;;;;;;12.8;100;934.8298;;;;
2023/06/09 02:33:14;;;;;;;6.8;5.7;;;;;;;12.86;100;934.8546;;;;
2023/06/09 02:35:40;;;;;;;6.9;6.2;;;;;;;12.83;100;934.8004;;;;
2023/06/09 02:38:05;;;;;;;7.2;6.3;;;;;;;12.82;99.8252;934.8308;;;;
2023/06/09 02:40:31;;;;;;;7.1;6.4;;;;;;;12.79;99.91992;934.817;;;;
2023/06/09 02:42:58;;;;;;;7.4;6.7;;;;;;;12.77;100;934.8523;;;;
2023/06/09 02:45:23;;;;;;;7.4;6.6;;;;;;;12.9;100;934.8359;;;;
2023/06/09 02:47:50;;;;;;;7.3;6.2;;;;;;;12.94;100;934.8597;;;;
2023/06/09 02:50:15;;;;;;;6.2;5.6;;;;;;;12.89;99.93164;934.8895;;;;
2023/06/09 02:52:44;;;;;;;6.3;5.7;;;;;;;12.91;98.86621;934.9455;;;;
2023/06/09 02:55:11;;;;;;;5.9;5.3;;;;;;;12.84;98.7959;934.9154;;;;
2023/06/09 02:57:37;;;;;;;5.7;5.2;;;;;;;12.73;99.28809;934.9827;;;;
2023/06/09 03:00:04;;;;;;;6.6;5.9;;;;;;;12.66;99.92578;934.9973;;;;
2023/06/09 03:02:32;;;;;;;6.6;5.9;;;;;;;12.58;100;935.0022;;;;
2023/06/09 03:04:56;;;;;;;6.3;5.7;;;;;;;12.53;100;935.019;;;;
2023/06/09 03:07:21;;;;;;;7;5.6;;;;;;;12.41;100;934.9984;;;;
2023/06/09 03:09:49;;;;;;;7.1;6.4;;;;;;;12.49;100;934.9409;;;;
2023/06/09 03:12:14;;;;;;;6.7;6;;;;;;;12.51;100;934.9385;;;;
2023/06/09 03:14:40;;;;;;;6.3;5.7;;;;;;;12.49;100;934.9985;;;;
2023/06/09 03:17:06;;;;;;;6.3;5.7;;;;;;;12.56;100;934.995;;;;
2023/06/09 03:19:33;;;;;;;6.2;5.6;;;;;;;12.45;100;934.9092;;;;
2023/06/09 03:21:58;;;;;;;6.6;5.9;;;;;;;12.33;100;934.9851;;;;
2023/06/09 03:24:27;;;;;;;6.6;5.9;;;;;;;12.26;100;934.9869;;;;
2023/06/09 03:26:52;;;;;;;6.7;5.9;;;;;;;12.2;100;934.9955;;;;
2023/06/09 03:29:19;;;;;;;6.4;5.8;;;;;;;12.19;100;935.0044;;;;
2023/06/09 03:31:44;;;;;;;7;6.3;;;;;;;12.13;100;934.9773;;;;
2023/06/09 03:34:12;;;;;;;7.1;6.4;;;;;;;12.14;100;935.0403;;;;
2023/06/09 03:36:37;;;;;;;7.5;6.7;;;;;;;12.19;100;935.0578;;;;
2023/06/09 03:39:04;;;;;;;6.6;6;;;;;;;12.16;100;935.01;;;;
2023/06/09 03:41:29;;;;;;;6.4;5.8;;;;;;;12.18;100;935.0977;;;;
2023/06/09 03:43:55;;;;;;;6.7;6;;;;;;;12.15;100;935.1312;;;;
2023/06/09 03:46:20;;;;;;;6.2;5.6;;;;;;;12.2;100;935.1264;;;;
2023/06/09 03:48:48;;;;;;;6.4;5.8;;;;;;;12.17;100;935.1632;;;;
2023/06/09 03:51:13;;;;;;;6.3;5.7;;;;;;;12.2;100;935.1408;;;;
2023/06/09 03:53:42;;;;;;;7.2;6;;;;;;;12.31;100;935.2255;;;;
2023/06/09 03:56:07;;;;;;;7.1;6.1;;;;;;;12.39;100;935.1582;;;;
2023/06/09 03:58:34;;;;;;;7.1;5.8;;;;;;;12.31;100;935.1824;;;;
2023/06/09 04:02:35;;;;;;;7.8;6.2;;;;;;;12.31;100;935.1664;;;;
2023/06/09 04:05:04;;;;;;;7.6;6.5;;;;;;;12.27;100;935.2095;;;;
2023/06/09 04:07:30;;;;;;;6.2;5.4;;;;;;;12.25;100;935.1865;;;;
2023/06/09 04:09:54;;;;;;;5.7;5.1;;;;;;;12.18;100;935.1138;;;;
2023/06/09 04:12:38;;;;;;;6.1;5.5;;;;;;;12.15;100;935.1975;;;;
2023/06/09 04:15:02;;;;;;;6.2;5.6;;;;;;;12.12;100;935.2199;;;;
2023/06/09 04:17:29;;;;;;;6.9;6.3;;;;;;;12.03;100;935.2265;;;;
2023/06/09 04:19:55;;;;;;;6.8;5.9;;;;;;;12.15;100;935.1816;;;;
2023/06/09 04:22:19;;;;;;;7.4;6.6;;;;;;;12.29;100;935.2095;;;;
2023/06/09 04:24:45;;;;;;;7.6;6.8;;;;;;;12.27;100;935.1553;;;;
2023/06/09 04:27:13;;;;;;;7.6;6.6;;;;;;;12.35;100;935.0769;;;;
2023/06/09 04:29:34;;;;;;;7.4;6.1;;;;;;;12.29;100;935.1537;;;;
2023/06/09 04:32:00;;;;;;;9;6.5;;;;;;;12.46;100;935.1967;;;;
2023/06/09 04:34:28;;;;;;;6.8;5.5;;;;;;;12.44;100;935.2446;;;;
2023/06/09 04:36:55;;;;;;;6.1;5.5;;;;;;;12.41;100;935.2595;;;;
2023/06/09 04:39:24;;;;;;;6.7;5.7;;;;;;;12.56;100;935.2283;;;;
2023/06/09 04:41:49;;;;;;;7.3;5.8;;;;;;;12.57;99.85938;935.233;;;;
2023/06/09 04:44:17;;;;;;;6.4;5.3;;;;;;;12.61;99.62598;935.2225;;;;
2023/06/09 04:46:42;;;;;;;7.8;5.6;;;;;;;12.59;99.8291;935.2378;;;;
2023/06/09 04:49:10;;;;;;;6.5;5.8;;;;;;;12.72;99.97266;935.2048;;;;
2023/06/09 04:51:41;;;;;;;8.8;5.7;;;;;;;12.76;98.93848;935.2271;;;;
2023/06/09 04:53:59;;;;;;;6.8;5.2;;;;;;;12.72;98.98535;935.212;;;;
2023/06/09 04:56:27;;;;;;;6.1;5.5;;;;;;;12.54;99.3457;935.1884;;;;
2023/06/09 04:58:52;;;;;;;7.3;6.3;;;;;;;12.41;100;935.2061;;;;
2023/06/09 05:01:23;;;;;;;8.7;7.5;;;;;;;12.62;100;935.1892;;;;
2023/06/09 05:03:51;;;;;;;10.8;7.4;;;;;;;13.96;100;935.1824;;;;
2023/06/09 05:06:17;;;;;;;6;4.6;;;;;;;15.23;90.47461;935.1459;;;;
2023/06/09 05:08:50;;;;;;;5.7;4;;;;;;;16.2;82.50781;935.249;;;;
2023/06/09 05:11:13;;;;;;;5.2;4;;;;;;;17.22;78.51465;935.1993;;;;
2023/06/09 05:13:42;;;;;;;4.4;3.9;;;;;;;17.52;76.08496;935.1805;;;;
2023/06/09 05:16:07;;;;;;;4.1;3.7;;;;;;;18.15;74.75391;935.1965;;;;
2023/06/09 05:18:34;;;;;;;5.1;3.5;;;;;;;18.74;70.99121;935.2224;;;;
2023/06/09 05:20:59;;;;;;;3.6;3.2;;;;;;;19.97;68.04199;935.2584;;;;
2023/06/09 05:23:27;;;;;;;4;3.4;;;;;;;20.86;64.28516;935.2548;;;;
2023/06/09 05:25:52;;;;;;;5.3;3.3;;;;;;;20.48;63.51758;935.2083;;;;
2023/06/09 05:28:22;;;;;;;3.6;3.2;;;;;;;20.62;63.1748;935.2255;;;;
2023/06/09 05:30:47;;;;;;;4.5;3.3;;;;;;;20.14;64.78711;935.2299;;;;
2023/06/09 05:33:12;;;;;;;3.7;2.9;;;;;;;20.28;64.08398;935.2814;;;;
2023/06/09 05:35:37;;;;;;;4.5;2.9;;;;;;;20.64;64.38086;935.2195;;;;
2023/06/09 05:38:04;;;;;;;3.5;3.2;;;;;;;19.67;66.33984;935.1819;;;;
2023/06/09 05:40:29;;;;;;;5;2.9;;;;;;;20.17;65.19824;935.154;;;;
2023/06/09 05:43:02;;;;;;;4.3;3.2;;;;;;;21.86;60.85547;935.2101;;;;
2023/06/09 05:45:30;;;;;;;4;3;;;;;;;21.45;59.48926;935.175;;;;
2023/06/09 05:48:03;;;;;;;3.6;2.9;;;;;;;22.55;55.5293;935.1744;;;;
2023/06/09 05:50:27;;;;;;;3;2.6;;;;;;;21.88;56.21875;935.1964;;;;
2023/06/09 05:52:53;;;;;;;5.4;3;;;;;;;21.74;60.23047;935.1522;;;;
2023/06/09 05:55:19;;;;;;;4.3;2.9;;;;;;;23.7;53.68457;935.1742;;;;
2023/06/09 05:57:48;;;;;;;3.4;3.1;;;;;;;22.78;53.43262;935.1432;;;;
2023/06/09 06:00:17;;;;;;;3.5;3.1;;;;;;;23.6;55.34277;935.1211;;;;
2023/06/09 06:02:44;;;;;;;3.9;2.8;;;;;;;23.74;53.29004;935.1292;;;;
2023/06/09 06:05:10;;;;;;;2.8;2.6;;;;;;;24.86;49.01074;935.1526;;;;
2023/06/09 06:07:38;;;;;;;3.4;2.6;;;;;;;25.06;50.46094;935.1431;;;;
2023/06/09 06:10:04;;;;;;;3.8;2.5;;;;;;;24.66;49.04785;935.1111;;;;
2023/06/09 06:12:32;;;;;;;2.8;2.5;;;;;;;24.82;50.58789;935.1387;;;;
2023/06/09 06:14:57;;;;;;;2.9;2.5;;;;;;;25.68;49.00684;935.0919;;;;
2023/06/09 06:17:26;;;;;;;2.8;2.5;;;;;;;26.72;44.69141;935.0334;;;;
2023/06/09 06:19:54;;;;;;;2.8;2.6;;;;;;;25.77;47.62305;935.0964;;;;
2023/06/09 06:22:19;;;;;;;3.3;2.8;;;;;;;25.34;47.87109;935.1223;;;;
2023/06/09 06:24:49;;;;;;;2.6;2.4;;;;;;;25.5;48.46777;935.0569;;;;
2023/06/09 06:27:18;;;;;;;2.6;2.4;;;;;;;24.94;49.44531;935.1387;;;;
2023/06/09 06:29:43;;;;;;;4.8;2.7;;;;;;;26.98;45.84277;935.0688;;;;
2023/06/09 06:32:11;;;;;;;5.4;2.7;;;;;;;28.26;42.70508;935.0963;;;;
2023/06/09 06:34:36;;;;;;;3.3;2.2;;;;;;;29.02;40.84766;935.1269;;;;
2023/06/09 06:37:04;;;;;;;6.8;2.5;;;;;;;28.53;40.96973;935.1247;;;;
2023/06/09 06:39:29;;;;;;;2.5;2.3;;;;;;;28.29;40.99512;935.0639;;;;
2023/06/09 06:41:57;;;;;;;2.9;2.6;;;;;;;25.69;45.68652;935.1051;;;;
2023/06/09 06:44:22;;;;;;;3.4;2.5;;;;;;;26.41;45.28613;935.0837;;;;
2023/06/09 06:46:50;;;;;;;2.7;2.5;;;;;;;27.57;44.21777;935.106;;;;
2023/06/09 06:49:21;;;;;;;2.8;2.5;;;;;;;25.73;45.57324;935.0524;;;;
2023/06/09 06:51:46;;;;;;;3;2.7;;;;;;;26.25;45.49512;935.058;;;;
2023/06/09 06:54:15;;;;;;;2.8;2.6;;;;;;;26.99;45.44043;935.045;;;;
2023/06/09 06:56:46;;;;;;;3.3;2.8;;;;;;;26.83;45.25879;935.019;;;;
2023/06/09 06:59:17;;;;;;;2.7;2.5;;;;;;;28.85;41.14258;935.0801;;;;
2023/06/09 07:01:46;;;;;;;3.4;2.8;;;;;;;27.62;44.74414;935.0645;;;;
2023/06/09 07:04:11;;;;;;;3.1;2.5;;;;;;;27.11;42.25195;935.0972;;;;
2023/06/09 07:06:40;;;;;;;2.7;2.3;;;;;;;28.86;39.97656;935.0975;;;;
2023/06/09 07:09:10;;;;;;;2.7;2.5;;;;;;;27.15;42.11328;935.0564;;;;
2023/06/09 07:11:35;;;;;;;3.2;2.6;;;;;;;27.11;44.14844;935.0314;;;;
2023/06/09 07:14:03;;;;;;;2.6;2.4;;;;;;;27.34;44.44434;935.0602;;;;
2023/06/09 07:16:28;;;;;;;3.3;2.2;;;;;;;28.16;41.69727;935.0714;;;;
2023/06/09 07:18:54;;;;;;;3;2.7;;;;;;;27.48;41.33789;935.0164;;;;
2023/06/09 07:21:19;;;;;;;2.8;2.6;;;;;;;26.63;42.59668;934.9969;;;;
2023/06/09 07:23:47;;;;;;;3.9;2.6;;;;;;;27.45;41.44141;935.0039;;;;
2023/06/09 07:26:12;;;;;;;2.8;2.5;;;;;;;28.19;39.98926;935.0062;;;;
2023/06/09 07:28:37;;;;;;;3.7;2.7;;;;;;;28.47;39.8584;934.9903;;;;
2023/06/09 07:31:03;;;;;;;5;2.9;;;;;;;29.97;36.86523;934.9841;;;;
2023/06/09 07:33:31;;;;;;;4.1;2.5;;;;;;;29.35;38.85254;934.9902;;;;
2023/06/09 07:35:53;;;;;;;2.7;2.5;;;;;;;29.57;38.13184;934.9609;;;;
2023/06/09 07:38:20;;;;;;;2.7;2.4;;;;;;;30.29;37.38184;934.9175;;;;
2023/06/09 07:40:45;;;;;;;2.8;2.6;;;;;;;28.14;39.44922;934.8912;;;;
2023/06/09 07:43:17;;;;;;;3.7;2.8;;;;;;;29.7;37.39258;934.8367;;;;
2023/06/09 07:45:46;;;;;;;3.2;2.5;;;;;;;30.59;38.64941;934.8616;;;;
2023/06/09 07:48:12;;;;;;;2.7;2.5;;;;;;;30.03;37.10938;934.8555;;;;
2023/06/09 07:50:38;;;;;;;2.6;2.4;;;;;;;29.96;37.35449;934.8389;;;;
2023/06/09 07:53:03;;;;;;;3.7;2.5;;;;;;;32.58;33.88672;934.8658;;;;
2023/06/09 07:55:33;;;;;;;2.9;2.5;;;;;;;31.08;35.09082;934.8705;;;;
2023/06/09 07:57:57;;;;;;;3.1;2.6;;;;;;;32.2;32.52832;934.8245;;;;
2023/06/09 08:00:24;;;;;;;3;2.7;;;;;;;30.88;35.44531;934.7665;;;;
2023/06/09 08:02:50;;;;;;;3;2.8;;;;;;;30.7;36.66211;934.7822;;;;
2023/06/09 08:05:18;;;;;;;3.2;2.8;;;;;;;30.89;33.74902;934.676;;;;
2023/06/09 08:07:42;;;;;;;3;2.7;;;;;;;30.19;37.12207;934.693;;;;
2023/06/09 08:10:12;;;;;;;4.4;2.9;;;;;;;30.13;37.02148;934.6756;;;;
2023/06/09 08:12:37;;;;;;;2.6;2.4;;;;;;;30.17;34.42383;934.6092;;;;
2023/06/09 08:15:05;;;;;;;2.8;2.6;;;;;;;29.11;38.16504;934.6766;;;;
2023/06/09 08:17:30;;;;;;;3;2.6;;;;;;;28.35;40.91797;934.653;;;;
2023/06/09 08:19:56;;;;;;;2.9;2.6;;;;;;;28.91;39.7793;934.6649;;;;
2023/06/09 08:22:22;;;;;;;3;2.7;;;;;;;27.76;39.36914;934.601;;;;
2023/06/09 08:24:49;;;;;;;4.7;2.7;;;;;;;26.79;43.47754;934.5759;;;;
2023/06/09 08:27:14;;;;;;;2.6;2.4;;;;;;;25.71;44.43555;934.5513;;;;
2023/06/09 08:29:41;;;;;;;3.1;2.3;;;;;;;25.45;45.59277;934.5048;;;;
2023/06/09 08:32:06;;;;;;;4.6;2.7;;;;;;;26.41;44.30371;934.5006;;;;
2023/06/09 08:34:32;;;;;;;3.1;2.7;;;;;;;25.9;45.67383;934.5122;;;;
2023/06/09 08:36:58;;;;;;;3.4;2.7;;;;;;;28.1;40.13477;934.5311;;;;
2023/06/09 08:39:25;;;;;;;3.4;2.6;;;;;;;28.72;39.0127;934.5225;;;;
2023/06/09 08:41:50;;;;;;;4.6;2.6;;;;;;;28.84;39.84375;934.468;;;;
2023/06/09 08:44:15;;;;;;;2.7;2.4;;;;;;;26.61;46.76367;934.5375;;;;
2023/06/09 08:46:42;;;;;;;2.7;2.5;;;;;;;28.76;41.0752;934.4785;;;;
2023/06/09 08:49:06;;;;;;;4;2.8;;;;;;;30.03;41.23828;934.4048;;;;
2023/06/09 08:51:31;;;;;;;4.6;2.8;;;;;;;30.77;37.34961;934.3901;;;;
2023/06/09 08:54:00;;;;;;;2.9;2.6;;;;;;;29.06;38.11328;934.4272;;;;
2023/06/09 08:56:24;;;;;;;3;2.7;;;;;;;27.06;45.36426;934.3989;;;;
2023/06/09 08:58:53;;;;;;;3.5;2.8;;;;;;;27.48;45.47852;934.3702;;;;
2023/06/09 09:01:19;;;;;;;4.4;2.9;;;;;;;27.98;45.18457;934.3876;;;;
2023/06/09 09:03:48;;;;;;;2.7;2.5;;;;;;;27.66;40.0957;934.3561;;;;
2023/06/09 09:06:19;;;;;;;5.5;3.3;;;;;;;26.49;44.07617;934.3525;;;;
2023/06/09 09:08:44;;;;;;;2.9;2.6;;;;;;;27.85;39.99414;934.3189;;;;
2023/06/09 09:11:14;;;;;;;4.7;3.5;;;;;;;27.02;44.51953;934.3575;;;;
2023/06/09 09:13:39;;;;;;;9.9;4.4;;;;;;;28.25;40.62305;934.3793;;;;
2023/06/09 09:16:13;;;;;;;4.9;3.3;;;;;;;27.37;45.94141;934.355;;;;
2023/06/09 09:18:37;;;;;;;6.3;3.5;;;;;;;27.75;43.12012;934.3807;;;;
2023/06/09 09:21:07;;;;;;;3.7;2.9;;;;;;;27.66;46.09082;934.3855;;;;
2023/06/09 09:23:37;;;;;;;5.7;3.4;;;;;;;26.74;45.69922;934.3872;;;;
2023/06/09 09:26:08;;;;;;;5.1;3.3;;;;;;;27.03;45.61035;934.2795;;;;
2023/06/09 09:28:33;;;;;;;4.5;3.3;;;;;;;27.11;45.63086;934.2464;;;;
2023/06/09 09:30:59;;;;;;;19.9;7.1;;;;;;;26.66;45.97559;934.3142;;;;
2023/06/09 09:33:24;;;;;;;11.6;5.4;;;;;;;27.49;45.5752;934.2639;;;;
2023/06/09 09:35:50;;;;;;;4.8;3.4;;;;;;;27.27;46.46484;934.2245;;;;
2023/06/09 09:38:16;;;;;;;4.4;3.1;;;;;;;26.72;45.11621;934.1733;;;;
2023/06/09 09:40:42;;;;;;;6.2;3.9;;;;;;;26.21;47.91797;934.187;;;;
2023/06/09 09:43:10;;;;;;;3.4;3;;;;;;;25.42;52.5459;934.1589;;;;
2023/06/09 09:45:37;;;;;;;4.7;3.8;;;;;;;25.62;52.40234;934.0867;;;;
2023/06/09 09:48:00;;;;;;;5.7;3.5;;;;;;;25.21;52.88574;934.0291;;;;
2023/06/09 09:50:25;;;;;;;3.7;3.2;;;;;;;25.51;53.79688;934.0019;;;;
2023/06/09 09:52:53;;;;;;;4.1;3.7;;;;;;;26.29;49.59473;933.97;;;;
2023/06/09 09:55:18;;;;;;;3.4;3.1;;;;;;;26.07;48.45898;933.9425;;;;
2023/06/09 09:57:45;;;;;;;6.2;4.1;;;;;;;25.14;54.01074;933.9166;;;;
2023/06/09 10:00:12;;;;;;;8.9;4.3;;;;;;;25.71;51.88281;933.8876;;;;
2023/06/09 10:02:40;;;;;;;4.9;3.9;;;;;;;25.32;52.48535;933.8541;;;;
2023/06/09 10:05:05;;;;;;;4.7;3.6;;;;;;;25.63;49.78125;933.8887;;;;
2023/06/09 10:07:30;;;;;;;7.2;4.2;;;;;;;25.18;54.14648;933.8605;;;;
2023/06/09 10:09:55;;;;;;;4.8;4;;;;;;;25.56;51.49805;933.8181;;;;
2023/06/09 10:12:22;;;;;;;6.5;4.3;;;;;;;25.59;53.48633;933.842;;;;
2023/06/09 10:14:47;;;;;;;5.6;4;;;;;;;25.72;51.28027;933.8293;;;;
2023/06/09 10:17:14;;;;;;;6.5;4.6;;;;;;;25.2;56.08496;933.7999;;;;
2023/06/09 10:19:44;;;;;;;4.7;3.7;;;;;;;25.28;53.2373;933.7924;;;;
2023/06/09 10:22:11;;;;;;;4.8;3.8;;;;;;;25.78;52.90625;933.7561;;;;
2023/06/09 10:24:37;;;;;;;5;4.2;;;;;;;25.35;51.53223;933.7222;;;;
2023/06/09 10:27:02;;;;;;;5;4;;;;;;;25.15;54.93359;933.793;;;;
2023/06/09 10:29:29;;;;;;;5.9;4.7;;;;;;;25.13;54.24609;933.7711;;;;
2023/06/09 10:31:54;;;;;;;6;4.7;;;;;;;25.18;53.60352;933.7905;;;;
2023/06/09 10:34:19;;;;;;;12.3;6;;;;;;;24.91;55.10449;933.7913;;;;
2023/06/09 10:36:45;;;;;;;5.5;4.3;;;;;;;25.24;52.18066;933.7045;;;;
2023/06/09 10:39:10;;;;;;;6.1;4.5;;;;;;;25.61;51.23242;933.6589;;;;
2023/06/09 10:41:36;;;;;;;4.3;3.9;;;;;;;25.83;50.46484;933.6171;;;;
2023/06/09 10:44:00;;;;;;;12.3;6.1;;;;;;;24.71;56.75488;933.6344;;;;
2023/06/09 10:46:26;;;;;;;10;5.3;;;;;;;24.58;55.8291;933.5394;;;;
2023/06/09 10:48:51;;;;;;;6;4.4;;;;;;;25.03;53.75;933.5556;;;;
2023/06/09 10:51:16;;;;;;;6.6;4.5;;;;;;;25.06;54.05957;933.4525;;;;
2023/06/09 10:53:41;;;;;;;5.7;4.5;;;;;;;25.4;53.9834;933.4348;;;;
2023/06/09 10:56:06;;;;;;;4.7;4.3;;;;;;;25.6;54.07813;933.4295;;;;
2023/06/09 10:58:37;;;;;;;6.3;4.4;;;;;;;25.75;53.75488;933.3128;;;;
2023/06/09 11:01:03;;;;;;;6.2;4.5;;;;;;;25.28;55.40918;933.3477;;;;
2023/06/09 11:03:28;;;;;;;5.3;4.4;;;;;;;25.34;53.7168;933.3547;;;;
2023/06/09 11:05:56;;;;;;;7.2;4.7;;;;;;;25.15;56.07813;933.3439;;;;
2023/06/09 11:09:02;;;;;;;5.5;4.3;;;;;;;25.32;56.48926;933.3755;;;;
2023/06/09 11:11:27;;;;;;;5.4;4.9;;;;;;;25.52;53.01758;933.2766;;;;
2023/06/09 11:13:52;;;;;;;4.8;4.3;;;;;;;25.93;52.13281;933.3198;;;;
2023/06/09 11:16:17;;;;;;;5.2;4.7;;;;;;;25.77;51.52246;933.3276;;;;
2023/06/09 11:18:42;;;;;;;4.9;4.3;;;;;;;25.93;49.8623;933.2461;;;;
2023/06/09 11:21:12;;;;;;;8.3;4.2;;;;;;;26.36;49.45898;933.2175;;;;
2023/06/09 11:23:42;;;;;;;5.3;4.4;;;;;;;25.94;51.02148;933.252;;;;
2023/06/09 11:26:07;;;;;;;5;4.5;;;;;;;25.36;53.37695;933.2211;;;;
2023/06/09 11:28:34;;;;;;;7.9;4.6;;;;;;;25.54;50.9873;933.1688;;;;
2023/06/09 11:31:00;;;;;;;5.5;4.1;;;;;;;25.11;52.28418;933.2158;;;;
2023/06/09 11:33:25;;;;;;;5.1;4.3;;;;;;;24.79;53.32031;933.1254;;;;
2023/06/09 11:35:51;;;;;;;4.5;4.1;;;;;;;24.58;54.4043;933.1353;;;;
2023/06/09 11:38:19;;;;;;;5.6;4.6;;;;;;;24.8;54.66602;933.0799;;;;
2023/06/09 11:40:44;;;;;;;5.2;4.7;;;;;;;24.96;53.84863;933.0952;;;;
2023/06/09 11:43:11;;;;;;;6.5;4.3;;;;;;;25.45;51.43945;933.0748;;;;
2023/06/09 11:45:36;;;;;;;6.6;4.8;;;;;;;25.65;51.35547;933.0909;;;;
2023/06/09 11:48:04;;;;;;;4.4;4;;;;;;;25.82;51.37402;933.0875;;;;
2023/06/09 11:50:28;;;;;;;4.6;4.1;;;;;;;25.95;52.38281;933.0563;;;;
2023/06/09 11:52:56;;;;;;;4.4;4;;;;;;;25.82;52.02344;933.0342;;;;
2023/06/09 11:55:21;;;;;;;7.1;4.4;;;;;;;26.19;48.49609;933.034;;;;
2023/06/09 11:57:48;;;;;;;5.9;4.1;;;;;;;26.5;47.67676;932.9797;;;;
2023/06/09 12:00:15;;;;;;;5.7;4.2;;;;;;;26.47;47.82813;932.974;;;;
2023/06/09 12:02:41;;;;;;;4.2;3.8;;;;;;;26.71;45.64844;933.044;;;;
2023/06/09 12:05:06;;;;;;;4.6;4.1;;;;;;;26.45;45.87109;932.9766;;;;
2023/06/09 12:07:35;;;;;;;5.2;4.3;;;;;;;26.56;48.71191;933.0507;;;;
2023/06/09 12:10:06;;;;;;;5.8;3.4;;;;;;;27.01;43.64063;932.9985;;;;
2023/06/09 12:12:31;;;;;;;4.6;3.9;;;;;;;26.67;47.12695;933.0315;;;;
2023/06/09 12:14:56;;;;;;;4.2;3.6;;;;;;;26.81;44.92383;933.0289;;;;
2023/06/09 12:17:25;;;;;;;4.1;3.7;;;;;;;26.84;42.72363;933.0953;;;;
2023/06/09 12:19:51;;;;;;;4.1;3.5;;;;;;;26.63;44.10156;933.1369;;;;
2023/06/09 12:22:18;;;;;;;5.8;4;;;;;;;26.43;43.8457;933.1022;;;;
2023/06/09 12:24:43;;;;;;;4.1;3.7;;;;;;;26.41;43.7959;933.1025;;;;
2023/06/09 12:27:08;;;;;;;3.8;3.3;;;;;;;26.11;44.21582;933.0799;;;;
2023/06/09 12:29:33;;;;;;;3.7;3.4;;;;;;;25.79;43.36914;933.1174;;;;
2023/06/09 12:31:58;;;;;;;5;3.7;;;;;;;25.79;43.14453;933.0817;;;;
2023/06/09 12:34:25;;;;;;;4;3.6;;;;;;;25.7;44.86035;933.1301;;;;
2023/06/09 12:36:50;;;;;;;4.3;3.7;;;;;;;25.78;44.13672;933.1039;;;;
2023/06/09 12:39:17;;;;;;;4.8;3.3;;;;;;;25.79;45.26074;933.0602;;;;
2023/06/09 12:41:43;;;;;;;3.5;3.2;;;;;;;25.52;45.52734;933.0828;;;;
2023/06/09 12:44:08;;;;;;;4;3.6;;;;;;;25.61;45.70313;933.0486;;;;
2023/06/09 12:46:33;;;;;;;4;3.5;;;;;;;25.77;46.17969;933.0483;;;;
2023/06/09 12:49:03;;;;;;;4.5;3.5;;;;;;;25.9;46.08691;933.0485;;;;
2023/06/09 12:51:27;;;;;;;4.5;4;;;;;;;26.02;47.06934;933.0312;;;;
2023/06/09 12:53:54;;;;;;;3.7;3.4;;;;;;;25.34;46.00586;932.9961;;;;
2023/06/09 12:56:19;;;;;;;4.4;3.4;;;;;;;25.48;45.52441;932.9867;;;;
2023/06/09 12:58:46;;;;;;;3.9;3.5;;;;;;;25.4;45.48145;933.0034;;;;
2023/06/09 13:01:11;;;;;;;4.5;3.7;;;;;;;26.01;45.0459;933.0242;;;;
2023/06/09 13:03:36;;;;;;;3.9;3.4;;;;;;;26.11;43.88477;932.9713;;;;
2023/06/09 13:06:02;;;;;;;3.5;3.2;;;;;;;26.13;43.17676;932.988;;;;
2023/06/09 13:08:32;;;;;;;4;3.3;;;;;;;26.12;43.03418;932.9533;;;;
2023/06/09 13:10:57;;;;;;;5.5;3.6;;;;;;;25.98;44.56934;933.0172;;;;
2023/06/09 13:13:24;;;;;;;3.6;3.3;;;;;;;26.11;42.54785;932.9141;;;;
2023/06/09 13:15:49;;;;;;;3.8;3.5;;;;;;;26.75;43.16504;932.9617;;;;
2023/06/09 13:18:16;;;;;;;4;3.5;;;;;;;26.93;41.9502;933.0661;;;;
2023/06/09 13:20:41;;;;;;;6.1;3.5;;;;;;;27.39;40.7002;933.0668;;;;
2023/06/09 13:23:07;;;;;;;6.1;3.1;;;;;;;27.95;40.43066;933.0135;;;;
2023/06/09 13:25:34;;;;;;;5.1;3.2;;;;;;;27.37;40.94824;932.9962;;;;
2023/06/09 13:27:59;;;;;;;4.3;3;;;;;;;27.49;40.3418;933.0325;;;;
2023/06/09 13:30:25;;;;;;;5.1;3.2;;;;;;;27.56;42.16309;933.0442;;;;
2023/06/09 13:32:52;;;;;;;6.4;3.4;;;;;;;27.33;40.23242;933.1191;;;;
2023/06/09 13:35:17;;;;;;;5.2;3.4;;;;;;;27.27;42.39648;933.0667;;;;
2023/06/09 13:37:46;;;;;;;3.3;3;;;;;;;27.51;40.34375;933.0229;;;;
2023/06/09 13:40:16;;;;;;;3.3;3;;;;;;;26.51;40.7627;932.931;;;;
2023/06/09 13:42:43;;;;;;;3.8;3.4;;;;;;;26.32;43.92871;932.995;;;;
2023/06/09 13:45:11;;;;;;;3.6;3.2;;;;;;;26.83;43.58789;932.928;;;;
2023/06/09 13:47:40;;;;;;;4.2;3.2;;;;;;;26.36;43.02051;932.8714;;;;
2023/06/09 13:50:05;;;;;;;4;3.1;;;;;;;26.44;44.55664;932.8697;;;;
2023/06/09 13:52:34;;;;;;;5.1;3.3;;;;;;;25.63;41.84082;932.8155;;;;
2023/06/09 13:55:02;;;;;;;3.9;3.3;;;;;;;25.5;43.9082;932.7396;;;;
2023/06/09 13:57:27;;;;;;;3.8;3.5;;;;;;;25.08;44.8457;932.7667;;;;
2023/06/09 13:59:53;;;;;;;5.6;3.2;;;;;;;25.15;42.8584;932.6038;;;;
2023/06/09 14:02:18;;;;;;;6.4;3.2;;;;;;;24.97;44.78809;932.6889;;;;
2023/06/09 14:04:46;;;;;;;5;3.4;;;;;;;25.08;44.32715;932.6223;;;;
2023/06/09 14:07:12;;;;;;;3.8;3.1;;;;;;;25.52;44.15723;932.5258;;;;
2023/06/09 14:09:39;;;;;;;4.5;3.1;;;;;;;25.88;43.07031;932.6261;;;;
2023/06/09 14:12:04;;;;;;;3.7;3.1;;;;;;;25.98;43.33984;932.6694;;;;
2023/06/09 14:14:32;;;;;;;3.8;2.9;;;;;;;26.21;43.83496;932.6283;;;;
2023/06/09 14:16:58;;;;;;;6;3.2;;;;;;;26.62;40.87988;932.5714;;;;
2023/06/09 14:19:26;;;;;;;5.5;3.2;;;;;;;26.55;41.95117;932.6351;;;;
2023/06/09 14:21:52;;;;;;;3.6;3.2;;;;;;;26.72;41.37402;932.6273;;;;
2023/06/09 14:24:21;;;;;;;4.2;3.2;;;;;;;26.88;39.76563;932.6296;;;;
2023/06/09 14:26:48;;;;;;;4.2;3.3;;;;;;;27.06;38.01465;932.5876;;;;
2023/06/09 14:29:16;;;;;;;3.8;2.8;;;;;;;26.92;38.90332;932.6277;;;;
2023/06/09 14:31:41;;;;;;;3.3;3;;;;;;;26.82;40.63672;932.6426;;;;
2023/06/09 14:34:06;;;;;;;5.7;3.4;;;;;;;25.93;43.12305;932.6606;;;;
2023/06/09 14:36:32;;;;;;;3.3;3;;;;;;;25.62;42.64258;932.6725;;;;
2023/06/09 14:39:01;;;;;;;4.7;3.5;;;;;;;25.94;41.60938;932.601;;;;
2023/06/09 14:41:26;;;;;;;4.2;3.4;;;;;;;26.26;40.18359;932.6672;;;;